sensor_id;sensor_type;location;lat;lon;timestamp;pressure;altitude;pressure_sealevel;temperature;humidity
69239;BME280;56349;51.816;-0.026;2023-02-04T00:01:52;102926.03;;;21.34;35.87
69239;BME280;56349;51.816;-0.026;2023-02-04T00:04:18;102926.17;;;21.25;35.98
69239;BME280;56349;51.816;-0.026;2023-02-04T00:06:44;102928.66;;;21.16;36.10
69239;BME280;56349;51.816;-0.026;2023-02-04T00:09:10;102925.91;;;21.07;36.20
69239;BME280;56349;51.816;-0.026;2023-02-04T00:11:35;102922.91;;;20.98;36.29
69239;BME280;56349;51.816;-0.026;2023-02-04T00:14:01;102922.12;;;21.18;36.36
69239;BME280;56349;51.816;-0.026;2023-02-04T00:16:27;102930.35;;;20.85;36.44
69239;BME280;56349;51.816;-0.026;2023-02-04T00:18:52;102935.41;;;21.06;36.51
69239;BME280;56349;51.816;-0.026;2023-02-04T00:21:18;102937.78;;;20.73;36.58
69239;BME280;56349;51.816;-0.026;2023-02-04T00:23:44;102944.22;;;20.93;36.66
69239;BME280;56349;51.816;-0.026;2023-02-04T00:26:10;102947.77;;;20.90;36.70
69239;BME280;56349;51.816;-0.026;2023-02-04T00:28:36;102944.89;;;20.84;36.75
69239;BME280;56349;51.816;-0.026;2023-02-04T00:31:02;102945.41;;;20.79;36.81
69239;BME280;56349;51.816;-0.026;2023-02-04T00:33:28;102947.12;;;20.73;36.88
69239;BME280;56349;51.816;-0.026;2023-02-04T00:35:54;102942.54;;;20.68;36.94
69239;BME280;56349;51.816;-0.026;2023-02-04T00:38:19;102943.46;;;20.64;36.98
69239;BME280;56349;51.816;-0.026;2023-02-04T00:40:45;102950.26;;;20.61;37.02
69239;BME280;56349;51.816;-0.026;2023-02-04T00:43:11;102953.26;;;20.56;37.07
69239;BME280;56349;51.816;-0.026;2023-02-04T00:45:37;102953.35;;;20.52;37.12
69239;BME280;56349;51.816;-0.026;2023-02-04T00:48:04;102951.67;;;20.48;37.16
69239;BME280;56349;51.816;-0.026;2023-02-04T00:50:28;102949.99;;;20.44;37.20
69239;BME280;56349;51.816;-0.026;2023-02-04T00:52:54;102949.19;;;20.39;37.25
69239;BME280;56349;51.816;-0.026;2023-02-04T00:55:20;102947.04;;;20.35;37.28
69239;BME280;56349;51.816;-0.026;2023-02-04T00:57:46;102947.08;;;20.53;37.33
69239;BME280;56349;51.816;-0.026;2023-02-04T01:00:14;102951.26;;;20.27;37.36
69239;BME280;56349;51.816;-0.026;2023-02-04T01:02:38;102954.72;;;20.21;37.44
69239;BME280;56349;51.816;-0.026;2023-02-04T01:05:04;102954.56;;;20.37;37.50
69239;BME280;56349;51.816;-0.026;2023-02-04T01:07:29;102958.07;;;20.33;37.54
69239;BME280;56349;51.816;-0.026;2023-02-04T01:09:55;102959.14;;;20.52;37.58
69239;BME280;56349;51.816;-0.026;2023-02-04T01:12:21;102963.75;;;20.05;37.59
69239;BME280;56349;51.816;-0.026;2023-02-04T01:14:46;102965.92;;;20.47;37.62
69239;BME280;56349;51.816;-0.026;2023-02-04T01:17:12;102964.72;;;19.99;37.66
69239;BME280;56349;51.816;-0.026;2023-02-04T01:19:38;102964.22;;;19.95;37.69
69239;BME280;56349;51.816;-0.026;2023-02-04T01:22:04;102969.00;;;20.35;37.73
69239;BME280;56349;51.816;-0.026;2023-02-04T01:24:30;102967.65;;;20.31;37.76
69239;BME280;56349;51.816;-0.026;2023-02-04T01:26:56;102965.05;;;19.85;37.78
69239;BME280;56349;51.816;-0.026;2023-02-04T01:29:22;102965.33;;;20.05;37.81
69239;BME280;56349;51.816;-0.026;2023-02-04T01:31:48;102967.89;;;20.25;37.82
69239;BME280;56349;51.816;-0.026;2023-02-04T01:34:13;102969.62;;;20.01;37.83
69239;BME280;56349;51.816;-0.026;2023-02-04T01:36:39;102968.23;;;20.20;37.86
69239;BME280;56349;51.816;-0.026;2023-02-04T01:39:05;102967.30;;;19.95;37.89
69239;BME280;56349;51.816;-0.026;2023-02-04T01:41:31;102969.32;;;19.71;37.89
69239;BME280;56349;51.816;-0.026;2023-02-04T01:43:57;102970.56;;;19.91;37.90
69239;BME280;56349;51.816;-0.026;2023-02-04T01:46:23;102968.56;;;20.11;37.92
69239;BME280;56349;51.816;-0.026;2023-02-04T01:48:49;102969.74;;;19.85;37.95
69239;BME280;56349;51.816;-0.026;2023-02-04T01:51:17;102973.43;;;19.84;37.96
69239;BME280;56349;51.816;-0.026;2023-02-04T01:53:40;102978.53;;;20.05;37.97
69239;BME280;56349;51.816;-0.026;2023-02-04T01:56:14;102975.86;;;19.81;37.98
69239;BME280;56349;51.816;-0.026;2023-02-04T01:58:31;102974.76;;;20.01;38.00
69239;BME280;56349;51.816;-0.026;2023-02-04T02:00:57;102982.03;;;19.77;37.99
69239;BME280;56349;51.816;-0.026;2023-02-04T02:03:22;102983.01;;;19.97;38.01
69239;BME280;56349;51.816;-0.026;2023-02-04T02:05:51;102985.60;;;19.95;38.02
69239;BME280;56349;51.816;-0.026;2023-02-04T02:08:14;102985.08;;;19.71;38.03
69239;BME280;56349;51.816;-0.026;2023-02-04T02:10:42;102987.06;;;19.93;38.02
69239;BME280;56349;51.816;-0.026;2023-02-04T02:13:09;102976.90;;;19.88;38.05
69239;BME280;56349;51.816;-0.026;2023-02-04T02:15:32;102977.00;;;19.85;38.08
69239;BME280;56349;51.816;-0.026;2023-02-04T02:17:58;102976.55;;;19.83;38.08
69239;BME280;56349;51.816;-0.026;2023-02-04T02:20:24;102974.09;;;19.80;38.12
69239;BME280;56349;51.816;-0.026;2023-02-04T02:22:58;102974.95;;;19.78;38.13
69239;BME280;56349;51.816;-0.026;2023-02-04T02:25:15;102978.81;;;19.77;38.14
69239;BME280;56349;51.816;-0.026;2023-02-04T02:27:41;102975.63;;;19.75;38.14
69239;BME280;56349;51.816;-0.026;2023-02-04T02:30:09;102976.31;;;19.74;38.16
69239;BME280;56349;51.816;-0.026;2023-02-04T02:32:32;102976.14;;;19.98;38.16
69239;BME280;56349;51.816;-0.026;2023-02-04T02:34:57;102978.86;;;19.46;38.18
69239;BME280;56349;51.816;-0.026;2023-02-04T02:37:23;102977.37;;;19.67;38.19
69239;BME280;56349;51.816;-0.026;2023-02-04T02:39:49;102972.13;;;19.64;38.20
69239;BME280;56349;51.816;-0.026;2023-02-04T02:42:17;102973.44;;;19.62;38.23
69239;BME280;56349;51.816;-0.026;2023-02-04T02:44:41;102976.05;;;19.61;38.23
69239;BME280;56349;51.816;-0.026;2023-02-04T02:47:11;102972.75;;;19.61;38.21
69239;BME280;56349;51.816;-0.026;2023-02-04T02:49:32;102972.07;;;19.61;38.21
69239;BME280;56349;51.816;-0.026;2023-02-04T02:51:57;102971.35;;;19.59;38.20
69239;BME280;56349;51.816;-0.026;2023-02-04T02:54:24;102970.59;;;19.57;38.23
69239;BME280;56349;51.816;-0.026;2023-02-04T02:56:47;102971.01;;;19.53;38.25
69239;BME280;56349;51.816;-0.026;2023-02-04T02:59:13;102971.06;;;19.51;38.28
69239;BME280;56349;51.816;-0.026;2023-02-04T03:01:39;102966.86;;;19.49;38.28
69239;BME280;56349;51.816;-0.026;2023-02-04T03:04:04;102963.63;;;19.47;38.28
69239;BME280;56349;51.816;-0.026;2023-02-04T03:06:30;102962.41;;;19.45;38.29
69239;BME280;56349;51.816;-0.026;2023-02-04T03:08:56;102962.46;;;19.43;38.31
69239;BME280;56349;51.816;-0.026;2023-02-04T03:11:21;102962.77;;;19.42;38.32
69239;BME280;56349;51.816;-0.026;2023-02-04T03:13:46;102960.06;;;19.41;38.30
69239;BME280;56349;51.816;-0.026;2023-02-04T03:16:11;102954.28;;;19.41;38.28
69239;BME280;56349;51.816;-0.026;2023-02-04T03:18:37;102961.78;;;19.41;38.27
69239;BME280;56349;51.816;-0.026;2023-02-04T03:21:03;102957.26;;;19.38;38.29
69239;BME280;56349;51.816;-0.026;2023-02-04T03:23:28;102947.14;;;19.35;38.30
69239;BME280;56349;51.816;-0.026;2023-02-04T03:25:54;102949.41;;;19.33;38.32
69239;BME280;56349;51.816;-0.026;2023-02-04T03:28:20;102956.20;;;19.33;38.32
69239;BME280;56349;51.816;-0.026;2023-02-04T03:30:46;102952.77;;;19.60;38.30
69239;BME280;56349;51.816;-0.026;2023-02-04T03:33:12;102949.94;;;19.58;38.29
69239;BME280;56349;51.816;-0.026;2023-02-04T03:35:38;102950.89;;;19.30;38.30
69239;BME280;56349;51.816;-0.026;2023-02-04T03:38:04;102955.96;;;19.28;38.31
69239;BME280;56349;51.816;-0.026;2023-02-04T03:40:29;102959.60;;;19.25;38.35
69239;BME280;56349;51.816;-0.026;2023-02-04T03:42:55;102961.27;;;19.22;38.37
69239;BME280;56349;51.816;-0.026;2023-02-04T03:45:21;102957.23;;;19.21;38.36
69239;BME280;56349;51.816;-0.026;2023-02-04T03:47:47;102953.30;;;19.19;38.36
69239;BME280;56349;51.816;-0.026;2023-02-04T03:50:13;102953.35;;;19.45;38.36
69239;BME280;56349;51.816;-0.026;2023-02-04T03:52:38;102954.18;;;19.18;38.35
69239;BME280;56349;51.816;-0.026;2023-02-04T03:55:05;102956.19;;;19.16;38.36
69239;BME280;56349;51.816;-0.026;2023-02-04T03:57:29;102956.20;;;19.15;38.36
69239;BME280;56349;51.816;-0.026;2023-02-04T03:59:56;102959.70;;;19.41;38.36
69239;BME280;56349;51.816;-0.026;2023-02-04T04:02:22;102960.56;;;19.42;38.35
69239;BME280;56349;51.816;-0.026;2023-02-04T04:04:48;102961.32;;;19.14;38.34
69239;BME280;56349;51.816;-0.026;2023-02-04T04:07:14;102967.09;;;19.14;38.32
69239;BME280;56349;51.816;-0.026;2023-02-04T04:09:40;102970.05;;;19.13;38.32
69239;BME280;56349;51.816;-0.026;2023-02-04T04:12:06;102971.06;;;19.37;38.34
69239;BME280;56349;51.816;-0.026;2023-02-04T04:14:32;102970.81;;;19.09;38.33
69239;BME280;56349;51.816;-0.026;2023-02-04T04:16:58;102974.05;;;19.08;38.33
69239;BME280;56349;51.816;-0.026;2023-02-04T04:19:24;102978.07;;;19.33;38.35
69239;BME280;56349;51.816;-0.026;2023-02-04T04:21:49;102978.32;;;19.04;38.35
69239;BME280;56349;51.816;-0.026;2023-02-04T04:24:15;102976.28;;;19.03;38.35
69239;BME280;56349;51.816;-0.026;2023-02-04T04:26:41;102980.01;;;19.02;38.35
69239;BME280;56349;51.816;-0.026;2023-02-04T04:29:07;102980.45;;;19.27;38.37
69239;BME280;56349;51.816;-0.026;2023-02-04T04:31:33;102983.22;;;19.25;38.42
69239;BME280;56349;51.816;-0.026;2023-02-04T04:33:59;102991.86;;;19.25;38.48
69239;BME280;56349;51.816;-0.026;2023-02-04T04:36:25;102989.88;;;19.00;38.55
69239;BME280;56349;51.816;-0.026;2023-02-04T04:38:51;102984.08;;;19.07;38.57
69239;BME280;56349;51.816;-0.026;2023-02-04T04:41:17;102986.92;;;19.18;38.53
69239;BME280;56349;51.816;-0.026;2023-02-04T04:43:43;102994.81;;;19.33;38.43
69239;BME280;56349;51.816;-0.026;2023-02-04T04:46:09;102993.74;;;19.30;38.23
69239;BME280;56349;51.816;-0.026;2023-02-04T04:48:34;102989.07;;;19.69;38.01
69239;BME280;56349;51.816;-0.026;2023-02-04T04:51:00;102986.97;;;19.85;37.74
69239;BME280;56349;51.816;-0.026;2023-02-04T04:53:26;102991.51;;;19.96;37.54
69239;BME280;56349;51.816;-0.026;2023-02-04T04:55:52;102995.00;;;20.03;37.36
69239;BME280;56349;51.816;-0.026;2023-02-04T04:58:18;102997.06;;;19.64;37.21
69239;BME280;56349;51.816;-0.026;2023-02-04T05:00:44;102995.40;;;20.09;37.10
69239;BME280;56349;51.816;-0.026;2023-02-04T05:03:10;102997.36;;;19.88;37.00
69239;BME280;56349;51.816;-0.026;2023-02-04T05:05:36;102998.91;;;19.86;36.94
69239;BME280;56349;51.816;-0.026;2023-02-04T05:08:02;102999.01;;;20.06;36.97
69239;BME280;56349;51.816;-0.026;2023-02-04T05:10:29;102997.53;;;20.05;37.00
69239;BME280;56349;51.816;-0.026;2023-02-04T05:12:54;103004.34;;;20.02;37.12
69239;BME280;56349;51.816;-0.026;2023-02-04T05:15:20;103004.26;;;19.77;37.25
69239;BME280;56349;51.816;-0.026;2023-02-04T05:17:46;103003.14;;;19.74;37.45
69239;BME280;56349;51.816;-0.026;2023-02-04T05:20:12;103002.36;;;19.71;37.64
69239;BME280;56349;51.816;-0.026;2023-02-04T05:22:38;103007.80;;;19.91;37.84
69239;BME280;56349;51.816;-0.026;2023-02-04T05:25:05;103005.73;;;19.89;38.04
69239;BME280;56349;51.816;-0.026;2023-02-04T05:27:29;103006.61;;;19.65;38.24
69239;BME280;56349;51.816;-0.026;2023-02-04T05:29:55;103008.69;;;19.87;38.44
69239;BME280;56349;51.816;-0.026;2023-02-04T05:32:21;103010.60;;;19.87;38.62
69239;BME280;56349;51.816;-0.026;2023-02-04T05:34:47;103010.53;;;19.66;38.78
69239;BME280;56349;51.816;-0.026;2023-02-04T05:37:13;103011.65;;;19.90;38.93
69239;BME280;56349;51.816;-0.026;2023-02-04T05:39:39;103013.63;;;19.92;39.06
69239;BME280;56349;51.816;-0.026;2023-02-04T05:42:05;103017.73;;;19.94;39.20
69239;BME280;56349;51.816;-0.026;2023-02-04T05:44:31;103015.92;;;19.97;39.30
69239;BME280;56349;51.816;-0.026;2023-02-04T05:46:57;103012.60;;;19.78;39.39
69239;BME280;56349;51.816;-0.026;2023-02-04T05:49:23;103014.47;;;19.81;39.48
69239;BME280;56349;51.816;-0.026;2023-02-04T05:51:48;103017.34;;;20.07;39.55
69239;BME280;56349;51.816;-0.026;2023-02-04T05:54:14;103024.60;;;19.67;39.63
69239;BME280;56349;51.816;-0.026;2023-02-04T05:56:40;103022.68;;;20.15;39.69
69239;BME280;56349;51.816;-0.026;2023-02-04T05:59:06;103022.12;;;19.97;39.73
69239;BME280;56349;51.816;-0.026;2023-02-04T06:01:32;103021.41;;;20.03;39.76
69239;BME280;56349;51.816;-0.026;2023-02-04T06:03:58;103020.17;;;19.86;39.78
69239;BME280;56349;51.816;-0.026;2023-02-04T06:06:24;103024.03;;;20.38;39.79
69239;BME280;56349;51.816;-0.026;2023-02-04T06:08:50;103024.29;;;20.43;39.80
69239;BME280;56349;51.816;-0.026;2023-02-04T06:11:15;103025.40;;;20.25;39.81
69239;BME280;56349;51.816;-0.026;2023-02-04T06:13:41;103028.55;;;20.28;39.82
69239;BME280;56349;51.816;-0.026;2023-02-04T06:16:07;103034.55;;;20.33;39.82
69239;BME280;56349;51.816;-0.026;2023-02-04T06:18:33;103038.99;;;20.16;39.79
69239;BME280;56349;51.816;-0.026;2023-02-04T06:20:59;103042.35;;;20.22;39.77
69239;BME280;56349;51.816;-0.026;2023-02-04T06:23:25;103043.92;;;20.49;39.75
69239;BME280;56349;51.816;-0.026;2023-02-04T06:25:51;103046.77;;;20.75;39.73
69239;BME280;56349;51.816;-0.026;2023-02-04T06:28:17;103048.73;;;20.34;39.67
69239;BME280;56349;51.816;-0.026;2023-02-04T06:30:42;103051.55;;;20.65;39.56
69239;BME280;56349;51.816;-0.026;2023-02-04T06:33:08;103051.13;;;20.67;39.50
69239;BME280;56349;51.816;-0.026;2023-02-04T06:35:34;103051.01;;;20.46;39.44
69239;BME280;56349;51.816;-0.026;2023-02-04T06:38:00;103050.45;;;20.49;39.34
69239;BME280;56349;51.816;-0.026;2023-02-04T06:40:25;103055.46;;;20.50;39.24
69239;BME280;56349;51.816;-0.026;2023-02-04T06:42:51;103059.92;;;20.50;39.17
69239;BME280;56349;51.816;-0.026;2023-02-04T06:45:17;103061.27;;;20.50;39.09
69239;BME280;56349;51.816;-0.026;2023-02-04T06:47:43;103061.57;;;20.50;39.01
69239;BME280;56349;51.816;-0.026;2023-02-04T06:50:09;103060.71;;;20.51;38.91
69239;BME280;56349;51.816;-0.026;2023-02-04T06:52:34;103064.43;;;20.51;38.82
69239;BME280;56349;51.816;-0.026;2023-02-04T06:55:00;103064.58;;;20.95;38.72
69239;BME280;56349;51.816;-0.026;2023-02-04T06:57:26;103065.54;;;20.50;38.64
69239;BME280;56349;51.816;-0.026;2023-02-04T06:59:52;103065.43;;;20.49;38.57
69239;BME280;56349;51.816;-0.026;2023-02-04T07:02:18;103064.04;;;20.48;38.48
69239;BME280;56349;51.816;-0.026;2023-02-04T07:04:44;103063.22;;;20.21;38.41
69239;BME280;56349;51.816;-0.026;2023-02-04T07:07:10;103065.45;;;20.92;38.32
69239;BME280;56349;51.816;-0.026;2023-02-04T07:09:36;103067.78;;;20.48;38.23
69239;BME280;56349;51.816;-0.026;2023-02-04T07:12:02;103065.52;;;20.46;38.18
69239;BME280;56349;51.816;-0.026;2023-02-04T07:14:27;103065.15;;;20.44;38.12
69239;BME280;56349;51.816;-0.026;2023-02-04T07:16:53;103065.84;;;20.44;38.04
69239;BME280;56349;51.816;-0.026;2023-02-04T07:19:19;103067.02;;;20.65;37.98
69239;BME280;56349;51.816;-0.026;2023-02-04T07:21:45;103070.07;;;20.63;37.93
69239;BME280;56349;51.816;-0.026;2023-02-04T07:24:11;103069.98;;;20.40;37.88
69239;BME280;56349;51.816;-0.026;2023-02-04T07:26:37;103071.61;;;20.39;37.80
69239;BME280;56349;51.816;-0.026;2023-02-04T07:29:02;103074.51;;;20.59;37.77
69239;BME280;56349;51.816;-0.026;2023-02-04T07:31:28;103079.64;;;20.33;37.74
69239;BME280;56349;51.816;-0.026;2023-02-04T07:33:54;103085.24;;;20.30;37.72
69239;BME280;56349;51.816;-0.026;2023-02-04T07:36:20;103086.80;;;20.27;37.70
69239;BME280;56349;51.816;-0.026;2023-02-04T07:38:46;103086.96;;;20.25;37.68
69239;BME280;56349;51.816;-0.026;2023-02-04T07:41:12;103086.01;;;19.98;37.63
69239;BME280;56349;51.816;-0.026;2023-02-04T07:43:38;103087.60;;;20.23;37.60
69239;BME280;56349;51.816;-0.026;2023-02-04T07:46:05;103088.34;;;20.20;37.58
69239;BME280;56349;51.816;-0.026;2023-02-04T07:48:29;103090.61;;;20.16;37.58
69239;BME280;56349;51.816;-0.026;2023-02-04T07:50:55;103091.61;;;20.34;37.58
69239;BME280;56349;51.816;-0.026;2023-02-04T07:53:21;103098.59;;;20.31;37.57
69239;BME280;56349;51.816;-0.026;2023-02-04T07:55:47;103101.78;;;20.50;37.57
69239;BME280;56349;51.816;-0.026;2023-02-04T07:58:13;103105.62;;;20.48;37.55
69239;BME280;56349;51.816;-0.026;2023-02-04T08:00:39;103107.10;;;20.04;37.51
69239;BME280;56349;51.816;-0.026;2023-02-04T08:03:05;103108.14;;;20.01;37.50
69239;BME280;56349;51.816;-0.026;2023-02-04T08:05:31;103110.61;;;19.98;37.52
69239;BME280;56349;51.816;-0.026;2023-02-04T08:07:56;103109.87;;;19.95;37.50
69239;BME280;56349;51.816;-0.026;2023-02-04T08:10:22;103110.44;;;20.13;37.50
69239;BME280;56349;51.816;-0.026;2023-02-04T08:12:48;103111.48;;;20.32;37.50
69239;BME280;56349;51.816;-0.026;2023-02-04T08:15:14;103109.42;;;20.07;37.51
69239;BME280;56349;51.816;-0.026;2023-02-04T08:17:40;103112.40;;;20.27;37.50
69239;BME280;56349;51.816;-0.026;2023-02-04T08:20:07;103117.84;;;20.02;37.50
69239;BME280;56349;51.816;-0.026;2023-02-04T08:22:32;103121.24;;;19.77;37.51
69239;BME280;56349;51.816;-0.026;2023-02-04T08:24:58;103122.37;;;20.19;37.49
69239;BME280;56349;51.816;-0.026;2023-02-04T08:27:24;103128.40;;;20.19;37.64
69239;BME280;56349;51.816;-0.026;2023-02-04T08:29:49;103135.47;;;20.20;37.87
69239;BME280;56349;51.816;-0.026;2023-02-04T08:32:15;103140.22;;;19.98;37.99
69239;BME280;56349;51.816;-0.026;2023-02-04T08:34:41;103140.05;;;20.23;38.31
69239;BME280;56349;51.816;-0.026;2023-02-04T08:37:07;103140.86;;;20.11;38.62
69239;BME280;56349;51.816;-0.026;2023-02-04T08:39:33;103139.71;;;20.05;38.66
69239;BME280;56349;51.816;-0.026;2023-02-04T08:41:59;103139.03;;;20.27;38.68
69239;BME280;56349;51.816;-0.026;2023-02-04T08:44:25;103138.55;;;20.51;38.57
69239;BME280;56349;51.816;-0.026;2023-02-04T08:46:51;103139.56;;;20.75;38.42
69239;BME280;56349;51.816;-0.026;2023-02-04T08:49:17;103145.42;;;20.76;38.28
69239;BME280;56349;51.816;-0.026;2023-02-04T08:51:42;103149.52;;;21.04;38.05
69239;BME280;56349;51.816;-0.026;2023-02-04T08:54:08;103151.35;;;21.09;37.76
69239;BME280;56349;51.816;-0.026;2023-02-04T08:56:34;103147.84;;;21.36;37.50
69239;BME280;56349;51.816;-0.026;2023-02-04T08:59:00;103148.29;;;21.64;37.22
69239;BME280;56349;51.816;-0.026;2023-02-04T09:01:26;103151.05;;;21.90;36.94
69239;BME280;56349;51.816;-0.026;2023-02-04T09:03:52;103153.19;;;21.95;36.62
69239;BME280;56349;51.816;-0.026;2023-02-04T09:06:18;103160.50;;;21.92;36.31
69239;BME280;56349;51.816;-0.026;2023-02-04T09:08:44;103156.67;;;22.62;36.04
69239;BME280;56349;51.816;-0.026;2023-02-04T09:11:10;103160.14;;;22.33;35.79
69239;BME280;56349;51.816;-0.026;2023-02-04T09:13:35;103162.65;;;22.51;35.55
69239;BME280;56349;51.816;-0.026;2023-02-04T09:16:01;103162.72;;;22.46;35.31
69239;BME280;56349;51.816;-0.026;2023-02-04T09:18:27;103163.88;;;22.84;35.09
69239;BME280;56349;51.816;-0.026;2023-02-04T09:20:53;103162.46;;;23.00;34.89
69239;BME280;56349;51.816;-0.026;2023-02-04T09:23:19;103162.24;;;22.65;34.68
69239;BME280;56349;51.816;-0.026;2023-02-04T09:25:44;103163.40;;;23.06;34.49
69239;BME280;56349;51.816;-0.026;2023-02-04T09:28:10;103164.26;;;23.19;34.30
69239;BME280;56349;51.816;-0.026;2023-02-04T09:30:35;103163.18;;;23.04;34.12
69239;BME280;56349;51.816;-0.026;2023-02-04T09:33:02;103164.76;;;23.12;33.96
69239;BME280;56349;51.816;-0.026;2023-02-04T09:35:28;103167.83;;;23.24;33.79
69239;BME280;56349;51.816;-0.026;2023-02-04T09:37:53;103168.09;;;23.33;33.63
69239;BME280;56349;51.816;-0.026;2023-02-04T09:40:19;103167.20;;;23.41;33.50
69239;BME280;56349;51.816;-0.026;2023-02-04T09:42:44;103169.55;;;23.48;33.38
69239;BME280;56349;51.816;-0.026;2023-02-04T09:45:14;103170.83;;;23.55;33.27
69239;BME280;56349;51.816;-0.026;2023-02-04T09:47:35;103175.66;;;23.61;33.17
69239;BME280;56349;51.816;-0.026;2023-02-04T09:50:01;103177.21;;;23.69;33.04
69239;BME280;56349;51.816;-0.026;2023-02-04T09:52:27;103176.83;;;23.78;32.90
69239;BME280;56349;51.816;-0.026;2023-02-04T09:54:53;103177.39;;;23.61;32.78
69239;BME280;56349;51.816;-0.026;2023-02-04T09:57:20;103179.73;;;23.91;32.65
69239;BME280;56349;51.816;-0.026;2023-02-04T09:59:45;103177.82;;;23.49;32.52
69239;BME280;56349;51.816;-0.026;2023-02-04T10:02:20;103178.87;;;23.77;32.42
69239;BME280;56349;51.816;-0.026;2023-02-04T10:04:36;103182.47;;;23.78;32.48
69239;BME280;56349;51.816;-0.026;2023-02-04T10:07:00;103182.68;;;24.02;32.47
69239;BME280;56349;51.816;-0.026;2023-02-04T10:09:26;103186.30;;;23.83;32.44
69239;BME280;56349;51.816;-0.026;2023-02-04T10:11:53;103186.67;;;23.62;32.38
69239;BME280;56349;51.816;-0.026;2023-02-04T10:14:21;103186.13;;;23.68;32.32
69239;BME280;56349;51.816;-0.026;2023-02-04T10:16:51;103189.04;;;23.77;32.22
69239;BME280;56349;51.816;-0.026;2023-02-04T10:19:13;103189.05;;;23.80;32.14
69239;BME280;56349;51.816;-0.026;2023-02-04T10:21:35;103187.97;;;23.86;32.08
69239;BME280;56349;51.816;-0.026;2023-02-04T10:24:01;103189.11;;;23.87;32.04
69239;BME280;56349;51.816;-0.026;2023-02-04T10:26:27;103186.10;;;24.09;32.00
69239;BME280;56349;51.816;-0.026;2023-02-04T10:28:57;103192.42;;;23.67;31.90
69239;BME280;56349;51.816;-0.026;2023-02-04T10:33:41;103195.49;;;24.06;31.67
69239;BME280;56349;51.816;-0.026;2023-02-04T10:36:07;103194.64;;;24.12;31.54
69239;BME280;56349;51.816;-0.026;2023-02-04T10:38:33;103194.57;;;24.18;31.40
69239;BME280;56349;51.816;-0.026;2023-02-04T10:41:00;103197.18;;;24.22;31.30
69239;BME280;56349;51.816;-0.026;2023-02-04T10:43:25;103201.82;;;23.93;31.31
69239;BME280;56349;51.816;-0.026;2023-02-04T10:45:56;103203.22;;;24.19;31.30
69239;BME280;56349;51.816;-0.026;2023-02-04T10:48:18;103204.84;;;24.13;31.35
69239;BME280;56349;51.816;-0.026;2023-02-04T10:50:42;103204.62;;;24.05;31.39
69239;BME280;56349;51.816;-0.026;2023-02-04T10:53:09;103207.70;;;23.95;31.46
69239;BME280;56349;51.816;-0.026;2023-02-04T10:55:32;103207.68;;;23.90;31.51
69239;BME280;56349;51.816;-0.026;2023-02-04T10:57:58;103208.41;;;23.81;31.55
69239;BME280;56349;51.816;-0.026;2023-02-04T11:00:25;103209.64;;;23.77;31.51
69239;BME280;56349;51.816;-0.026;2023-02-04T11:02:55;103207.71;;;23.74;31.51
69239;BME280;56349;51.816;-0.026;2023-02-04T11:05:18;103204.37;;;23.72;31.46
69239;BME280;56349;51.816;-0.026;2023-02-04T11:07:43;103202.31;;;23.70;31.43
69239;BME280;56349;51.816;-0.026;2023-02-04T11:10:13;103201.38;;;23.65;31.42
69239;BME280;56349;51.816;-0.026;2023-02-04T11:12:39;103201.62;;;23.62;31.42
69239;BME280;56349;51.816;-0.026;2023-02-04T11:14:59;103200.51;;;23.64;31.35
69239;BME280;56349;51.816;-0.026;2023-02-04T11:17:29;103199.65;;;23.63;31.30
69239;BME280;56349;51.816;-0.026;2023-02-04T11:19:51;103198.81;;;23.61;31.27
69239;BME280;56349;51.816;-0.026;2023-02-04T11:22:22;103196.28;;;23.59;31.24
69239;BME280;56349;51.816;-0.026;2023-02-04T11:24:42;103196.40;;;23.59;31.21
69239;BME280;56349;51.816;-0.026;2023-02-04T11:29:35;103197.57;;;23.59;31.12
69239;BME280;56349;51.816;-0.026;2023-02-04T11:32:02;103201.50;;;23.58;31.10
69239;BME280;56349;51.816;-0.026;2023-02-04T11:34:28;103203.38;;;23.56;31.07
69239;BME280;56349;51.816;-0.026;2023-02-04T11:37:01;103199.71;;;23.56;31.05
69239;BME280;56349;51.816;-0.026;2023-02-04T11:39:17;103201.41;;;23.54;31.04
69239;BME280;56349;51.816;-0.026;2023-02-04T11:41:44;103200.09;;;23.54;30.98
69239;BME280;56349;51.816;-0.026;2023-02-04T11:44:08;103201.76;;;23.56;30.98
69239;BME280;56349;51.816;-0.026;2023-02-04T11:46:34;103199.23;;;23.78;30.98
69239;BME280;56349;51.816;-0.026;2023-02-04T11:49:00;103196.23;;;23.53;31.02
69239;BME280;56349;51.816;-0.026;2023-02-04T11:51:30;103194.54;;;23.51;31.05
69239;BME280;56349;51.816;-0.026;2023-02-04T11:53:51;103193.55;;;23.51;31.08
69239;BME280;56349;51.816;-0.026;2023-02-04T11:56:18;103193.93;;;23.77;31.09
69239;BME280;56349;51.816;-0.026;2023-02-04T11:58:45;103192.90;;;23.58;31.03
69239;BME280;56349;51.816;-0.026;2023-02-04T12:01:16;103194.62;;;23.62;31.00
69239;BME280;56349;51.816;-0.026;2023-02-04T12:03:34;103187.80;;;24.08;30.96
69239;BME280;56349;51.816;-0.026;2023-02-04T12:06:00;103189.58;;;24.13;30.91
69239;BME280;56349;51.816;-0.026;2023-02-04T12:08:31;103191.43;;;23.73;30.87
69239;BME280;56349;51.816;-0.026;2023-02-04T12:10:59;103195.47;;;23.72;30.86
69239;BME280;56349;51.816;-0.026;2023-02-04T12:13:20;103195.80;;;23.77;30.79
69239;BME280;56349;51.816;-0.026;2023-02-04T12:15:53;103194.93;;;23.79;30.76
69239;BME280;56349;51.816;-0.026;2023-02-04T12:18:10;103193.04;;;23.82;30.72
69239;BME280;56349;51.816;-0.026;2023-02-04T12:20:34;103196.18;;;23.82;30.66
69239;BME280;56349;51.816;-0.026;2023-02-04T12:22:59;103194.78;;;23.84;30.63
69239;BME280;56349;51.816;-0.026;2023-02-04T12:25:25;103194.38;;;23.92;30.62
69239;BME280;56349;51.816;-0.026;2023-02-04T12:27:51;103201.87;;;23.98;30.59
69239;BME280;56349;51.816;-0.026;2023-02-04T12:30:17;103206.40;;;23.98;30.55
69239;BME280;56349;51.816;-0.026;2023-02-04T12:32:42;103211.99;;;24.42;30.52
69239;BME280;56349;51.816;-0.026;2023-02-04T12:35:08;103207.44;;;23.75;30.74
69239;BME280;56349;51.816;-0.026;2023-02-04T12:37:34;103203.67;;;24.10;30.76